createdAt,value
2019-05-18T00:01:36.093Z,7.00
2019-05-18T00:04:05.392Z,7.00
2019-05-18T00:06:34.704Z,7.00
2019-05-18T00:09:06.087Z,7.00
2019-05-18T00:11:35.394Z,7.00
2019-05-18T00:14:04.865Z,6.90
2019-05-18T00:16:35.070Z,6.70
2019-05-18T00:19:04.372Z,6.50
2019-05-18T00:21:33.756Z,6.40
2019-05-18T00:24:03.062Z,6.30
2019-05-18T00:26:32.374Z,6.30
2019-05-18T00:29:01.758Z,6.30
2019-05-18T00:31:31.166Z,6.40
2019-05-18T00:34:00.480Z,6.30
2019-05-18T00:36:29.788Z,6.30
2019-05-18T00:38:59.109Z,6.30
2019-05-18T00:41:28.416Z,6.20
2019-05-18T00:43:57.744Z,6.20
2019-05-18T00:46:27.052Z,6.20
2019-05-18T00:48:57.358Z,6.30
2019-05-18T00:51:27.286Z,6.20
2019-05-18T00:53:56.589Z,6.10
2019-05-18T00:56:25.902Z,6.10
2019-05-18T00:58:55.226Z,6.00
2019-05-18T01:01:24.539Z,6.00
2019-05-18T01:03:53.864Z,6.00
2019-05-18T01:06:23.177Z,6.10
2019-05-18T01:08:52.489Z,6.10
2019-05-18T01:11:22.564Z,6.10
2019-05-18T01:13:51.928Z,6.00
2019-05-18T01:16:21.234Z,6.00
2019-05-18T01:18:50.565Z,5.90
2019-05-18T01:21:19.870Z,5.90
2019-05-18T01:23:49.173Z,5.90
2019-05-18T01:26:18.492Z,5.90
2019-05-18T01:28:47.797Z,5.90
2019-05-18T01:31:17.112Z,5.90
2019-05-18T01:33:46.418Z,5.90
2019-05-18T01:36:15.741Z,6.00
2019-05-18T01:38:45.125Z,5.90
2019-05-18T01:41:14.512Z,5.90
2019-05-18T01:43:43.816Z,5.90
2019-05-18T01:46:13.201Z,5.90
2019-05-18T01:48:43.121Z,6.00
2019-05-18T01:51:12.433Z,6.10
2019-05-18T01:53:41.981Z,6.10
2019-05-18T01:56:11.330Z,6.10
2019-05-18T01:58:40.642Z,6.00
2019-05-18T02:01:09.949Z,6.00
2019-05-18T02:03:39.282Z,5.90
2019-05-18T02:06:08.585Z,6.00
2019-05-18T02:08:37.893Z,5.90
2019-05-18T02:11:07.206Z,5.90
2019-05-18T02:13:37.809Z,5.80
2019-05-18T02:16:07.142Z,5.80
2019-05-18T02:18:36.543Z,5.80
2019-05-18T02:21:05.877Z,5.80
2019-05-18T02:23:35.189Z,5.80
2019-05-18T02:26:04.499Z,5.70
2019-05-18T02:28:35.228Z,5.70
2019-05-18T02:31:04.608Z,5.70
2019-05-18T02:33:33.932Z,5.70
2019-05-18T02:36:03.244Z,5.70
2019-05-18T02:38:32.549Z,5.70
2019-05-18T02:41:01.937Z,5.70
2019-05-18T02:43:31.317Z,5.70
2019-05-18T02:46:01.210Z,5.70
2019-05-18T02:48:47.881Z,5.70
2019-05-18T02:51:01.634Z,5.50
2019-05-18T02:53:31.001Z,5.40
2019-05-18T02:56:00.390Z,5.40
2019-05-18T02:58:29.764Z,5.40
2019-05-18T03:00:59.075Z,5.40
2019-05-18T03:03:28.446Z,5.50
2019-05-18T03:05:58.320Z,5.40
2019-05-18T03:08:28.156Z,5.40
2019-05-18T03:10:57.462Z,5.40
2019-05-18T03:13:26.779Z,5.40
2019-05-18T03:15:56.530Z,5.40
2019-05-18T03:18:25.837Z,5.50
2019-05-18T03:20:55.159Z,5.50
2019-05-18T03:23:24.514Z,5.50
2019-05-18T03:25:54.274Z,5.50
2019-05-18T03:28:23.578Z,5.60
2019-05-18T03:30:52.892Z,5.50
2019-05-18T03:33:28.467Z,5.40
2019-05-18T03:35:53.371Z,5.30
2019-05-18T03:38:42.039Z,5.10
2019-05-18T03:41:11.354Z,5.00
2019-05-18T03:43:40.762Z,5.00
2019-05-18T03:46:10.257Z,5.00
2019-05-18T03:48:39.557Z,4.90
2019-05-18T03:51:08.880Z,4.90
2019-05-18T03:53:38.188Z,4.80
2019-05-18T03:56:07.577Z,4.80
2019-05-18T03:58:36.886Z,4.80
2019-05-18T04:01:06.200Z,4.80
2019-05-18T04:03:36.102Z,4.70
2019-05-18T04:06:05.411Z,4.70
2019-05-18T04:08:34.731Z,4.60
2019-05-18T04:11:04.039Z,4.70
2019-05-18T04:13:33.354Z,4.80
2019-05-18T04:16:02.797Z,4.90
2019-05-18T04:18:32.162Z,5.00
2019-05-18T04:21:05.418Z,5.10
2019-05-18T04:23:34.736Z,5.20
2019-05-18T04:26:04.981Z,5.20
2019-05-18T04:28:34.292Z,5.30
2019-05-18T04:31:03.578Z,5.40
2019-05-18T04:33:32.897Z,5.50
2019-05-18T04:36:02.228Z,5.50
2019-05-18T04:38:31.539Z,5.60
2019-05-18T04:41:00.845Z,5.70
2019-05-18T04:43:30.160Z,5.80
2019-05-18T04:45:59.473Z,5.80
2019-05-18T04:48:28.783Z,5.80
2019-05-18T04:50:58.110Z,5.90
2019-05-18T04:53:27.417Z,5.90
2019-05-18T04:55:56.735Z,5.90
2019-05-18T04:58:26.042Z,5.90
2019-05-18T05:00:55.345Z,5.90
2019-05-18T05:03:24.719Z,5.80
2019-05-18T05:05:54.094Z,6.00
2019-05-18T05:08:23.436Z,6.20
2019-05-18T05:10:52.783Z,6.20
2019-05-18T05:13:22.085Z,6.30
2019-05-18T05:15:53.270Z,6.40
2019-05-18T05:18:23.653Z,6.60
2019-05-18T05:20:52.973Z,6.70
2019-05-18T05:23:22.281Z,6.70
2019-05-18T05:25:51.578Z,6.80
2019-05-18T05:28:20.881Z,6.90
2019-05-18T05:30:50.192Z,7.00
2019-05-18T05:33:20.091Z,7.10
2019-05-18T05:35:49.393Z,7.30
2019-05-18T05:38:18.705Z,7.50
2019-05-18T05:40:48.050Z,7.80
2019-05-18T05:43:17.346Z,8.20
2019-05-18T05:45:46.653Z,8.50
2019-05-18T05:48:15.948Z,8.80
2019-05-18T05:50:45.258Z,9.00
2019-05-18T05:53:15.445Z,9.40
2019-05-18T05:55:44.741Z,9.70
2019-05-18T05:58:14.057Z,10.10
2019-05-18T06:00:43.388Z,10.50
2019-05-18T06:03:12.758Z,10.90
2019-05-18T06:05:42.064Z,11.20
2019-05-18T06:08:11.374Z,11.20
2019-05-18T06:10:41.806Z,11.40
2019-05-18T06:13:11.122Z,11.60
2019-05-18T06:15:40.441Z,12.00
2019-05-18T06:18:09.749Z,12.30
2019-05-18T06:20:50.849Z,12.50
2019-05-18T06:23:12.880Z,12.60
2019-05-18T06:25:42.195Z,12.40
2019-05-18T06:28:11.505Z,12.10
2019-05-18T06:30:40.822Z,12.20
2019-05-18T06:33:10.241Z,12.30
2019-05-18T06:35:40.385Z,12.10
2019-05-18T06:38:09.707Z,12.10
2019-05-18T06:40:39.021Z,12.20
2019-05-18T06:43:08.338Z,12.40
2019-05-18T06:45:37.655Z,12.30
2019-05-18T06:48:06.966Z,12.40
2019-05-18T06:50:36.290Z,12.60
2019-05-18T06:53:05.618Z,12.90
2019-05-18T06:55:35.100Z,13.30
2019-05-18T06:58:04.477Z,13.70
2019-05-18T07:00:33.796Z,14.30
2019-05-18T07:03:03.134Z,14.50
2019-05-18T07:05:32.449Z,15.10
2019-05-18T07:08:01.762Z,15.20
2019-05-18T07:10:31.099Z,15.30
2019-05-18T07:13:00.411Z,15.40
2019-05-18T07:15:29.737Z,15.50
2019-05-18T07:17:59.054Z,15.70
2019-05-18T07:20:28.371Z,15.90
2019-05-18T07:22:58.745Z,16.30
2019-05-18T07:25:28.055Z,16.80
2019-05-18T07:27:57.373Z,17.20
2019-05-18T07:30:26.688Z,17.50
2019-05-18T07:32:56.005Z,17.90
2019-05-18T07:35:25.394Z,18.20
2019-05-18T07:37:54.712Z,18.40
2019-05-18T07:40:24.130Z,18.60
2019-05-18T07:42:53.519Z,18.80
2019-05-18T07:45:22.833Z,18.60
2019-05-18T07:47:52.146Z,18.20
2019-05-18T07:50:21.546Z,18.40
2019-05-18T07:52:50.874Z,18.50
2019-05-18T07:55:20.185Z,18.50
2019-05-18T07:57:49.510Z,18.60
2019-05-18T08:00:18.894Z,18.90
2019-05-18T08:02:48.200Z,19.00
2019-05-18T08:05:17.532Z,19.30
2019-05-18T08:07:46.841Z,19.60
2019-05-18T08:10:19.268Z,19.40
2019-05-18T08:12:48.577Z,19.40
2019-05-18T08:15:19.233Z,19.50
2019-05-18T08:17:48.533Z,19.70
2019-05-18T08:20:17.849Z,20.00
2019-05-18T08:22:47.173Z,20.00
2019-05-18T08:25:17.927Z,20.00
2019-05-18T08:27:47.261Z,19.80
2019-05-18T08:30:16.695Z,19.80
2019-05-18T08:32:46.014Z,20.00
2019-05-18T08:35:15.874Z,20.70
2019-05-18T08:37:45.186Z,20.80
2019-05-18T08:40:14.643Z,20.80
2019-05-18T08:42:43.949Z,21.40
2019-05-18T08:45:13.494Z,21.60
2019-05-18T08:47:42.805Z,21.60
2019-05-18T08:50:12.251Z,21.70
2019-05-18T08:52:42.197Z,22.00
2019-05-18T08:55:13.353Z,21.80
2019-05-18T08:57:42.709Z,22.20
2019-05-18T09:00:12.517Z,22.40
2019-05-18T09:02:41.833Z,22.90
2019-05-18T09:05:11.649Z,22.80
2019-05-18T09:07:41.019Z,23.20
2019-05-18T09:10:10.957Z,23.50
2019-05-18T09:12:40.265Z,23.20
2019-05-18T09:15:10.109Z,23.20
2019-05-18T09:17:39.440Z,23.00
2019-05-18T09:20:09.282Z,22.70
2019-05-18T09:22:38.649Z,22.60
2019-05-18T09:25:08.491Z,22.60
2019-05-18T09:27:41.077Z,22.40
2019-05-18T09:30:11.472Z,22.40
2019-05-18T09:32:40.875Z,22.30
2019-05-18T09:35:10.658Z,23.00
2019-05-18T09:37:39.959Z,23.60
2019-05-18T09:40:09.898Z,24.20
2019-05-18T09:42:39.208Z,24.00
2019-05-18T09:45:09.109Z,24.00
2019-05-18T09:47:38.414Z,23.50
2019-05-18T09:50:08.525Z,23.60
2019-05-18T09:52:46.157Z,24.00
2019-05-18T09:55:09.398Z,23.80
2019-05-18T09:57:38.721Z,23.90
2019-05-18T10:00:10.370Z,24.00
2019-05-18T10:02:39.677Z,23.80
2019-05-18T10:05:09.425Z,23.60
2019-05-18T10:07:38.734Z,24.00
2019-05-18T10:10:08.813Z,24.00
2019-05-18T10:12:38.492Z,24.10
2019-05-18T10:15:08.877Z,24.00
2019-05-18T10:17:38.246Z,24.30
2019-05-18T10:20:08.999Z,24.80
2019-05-18T10:22:51.215Z,25.00
2019-05-18T10:25:10.055Z,25.10
2019-05-18T10:27:39.381Z,25.50
2019-05-18T10:30:10.789Z,25.20
2019-05-18T10:32:40.115Z,25.50
2019-05-18T10:35:09.983Z,25.90
2019-05-18T10:37:39.362Z,26.20
2019-05-18T10:40:09.117Z,25.90
2019-05-18T10:42:38.429Z,25.40
2019-05-18T10:45:09.171Z,24.90
2019-05-18T10:47:38.482Z,24.90
2019-05-18T10:50:08.039Z,25.40
2019-05-18T10:52:37.353Z,26.00
2019-05-18T10:55:07.681Z,26.10
2019-05-18T10:57:36.990Z,25.70
2019-05-18T11:00:11.206Z,25.80
2019-05-18T11:02:40.659Z,26.00
2019-05-18T11:05:10.888Z,26.30
2019-05-18T11:07:40.203Z,26.40
2019-05-18T11:10:10.806Z,26.70
2019-05-18T11:12:41.094Z,27.60
2019-05-18T11:15:12.736Z,27.80
2019-05-18T11:17:42.063Z,27.30
2019-05-18T11:20:12.895Z,27.20
2019-05-18T11:22:42.217Z,27.10
2019-05-18T11:25:12.569Z,26.60
2019-05-18T11:27:43.389Z,26.40
2019-05-18T11:30:15.622Z,26.40
2019-05-18T11:32:44.990Z,26.40
2019-05-18T11:35:15.105Z,26.40
2019-05-18T11:37:44.450Z,26.60
2019-05-18T11:40:14.207Z,26.80
2019-05-18T11:42:49.424Z,27.10
2019-05-18T11:45:20.711Z,27.20
2019-05-18T11:47:50.658Z,27.60
2019-05-18T11:50:20.501Z,28.00
2019-05-18T11:52:49.810Z,27.80
2019-05-18T11:55:19.258Z,27.50
2019-05-18T11:57:48.664Z,27.70
2019-05-18T12:00:18.646Z,27.20
2019-05-18T12:02:47.950Z,27.30
2019-05-18T12:05:17.549Z,27.50
2019-05-18T12:07:46.924Z,27.20
2019-05-18T12:10:18.686Z,27.00
2019-05-18T12:12:48.240Z,26.80
2019-05-18T12:15:18.192Z,27.00
2019-05-18T12:17:47.490Z,27.10
2019-05-18T12:20:18.409Z,27.70
2019-05-18T12:22:48.593Z,27.80
2019-05-18T12:25:17.902Z,27.80
2019-05-18T12:27:47.248Z,28.30
2019-05-18T12:30:17.161Z,28.30
2019-05-18T12:32:46.473Z,28.00
2019-05-18T12:35:16.450Z,27.50
2019-05-18T12:37:46.725Z,27.70
2019-05-18T12:40:19.722Z,27.80
2019-05-18T12:42:49.022Z,27.90
2019-05-18T12:45:18.865Z,28.30
2019-05-18T12:47:48.177Z,28.70
2019-05-18T12:50:18.428Z,28.60
2019-05-18T12:52:47.742Z,28.60
2019-05-18T12:55:17.591Z,28.20
2019-05-18T12:57:47.723Z,27.90
2019-05-18T13:00:18.049Z,28.00
2019-05-18T13:02:47.349Z,28.40
2019-05-18T13:05:16.821Z,28.90
2019-05-18T13:07:46.217Z,29.40
2019-05-18T13:10:17.652Z,29.10
2019-05-18T13:12:47.742Z,28.80
2019-05-18T13:15:19.344Z,29.10
2019-05-18T13:17:48.723Z,29.40
2019-05-18T13:20:18.867Z,29.10
2019-05-18T13:22:48.246Z,29.70
2019-05-18T13:25:17.980Z,30.90
2019-05-18T13:27:48.184Z,31.20
2019-05-18T13:30:19.946Z,31.00
2019-05-18T13:32:48.863Z,31.30
2019-05-18T13:35:18.350Z,31.00
2019-05-18T13:37:47.687Z,31.50
2019-05-18T13:40:17.581Z,31.60
2019-05-18T13:42:46.891Z,32.50
2019-05-18T13:45:16.835Z,33.00
2019-05-18T13:47:46.138Z,32.70
2019-05-18T13:50:15.898Z,32.50
2019-05-18T13:52:45.221Z,32.20
2019-05-18T13:55:14.529Z,31.90
2019-05-18T13:57:43.850Z,31.70
2019-05-18T14:00:14.686Z,31.50
2019-05-18T14:02:44.091Z,31.00
2019-05-18T14:05:13.946Z,30.70
2019-05-18T14:07:43.249Z,30.80
2019-05-18T14:10:12.932Z,31.10
2019-05-18T14:12:42.283Z,31.10
2019-05-18T14:15:12.536Z,31.20
2019-05-18T14:17:41.835Z,31.30
2019-05-18T14:20:11.793Z,31.40
2019-05-18T14:22:41.100Z,31.90
2019-05-18T14:25:19.255Z,31.70
2019-05-18T14:27:42.087Z,32.10
2019-05-18T14:30:12.657Z,31.50
2019-05-18T14:32:42.522Z,31.20
2019-05-18T14:35:12.164Z,31.40
2019-05-18T14:37:41.490Z,31.10
2019-05-18T14:40:11.332Z,32.30
2019-05-18T14:42:40.723Z,32.50
2019-05-18T14:45:10.778Z,31.90
2019-05-18T14:47:40.113Z,31.90
2019-05-18T14:50:10.886Z,31.60
2019-05-18T14:52:40.194Z,32.10
2019-05-18T14:55:09.639Z,31.50
2019-05-18T14:57:39.053Z,31.00
2019-05-18T15:00:09.177Z,28.80
2019-05-18T15:02:38.481Z,28.60
2019-05-18T15:05:08.526Z,30.10
2019-05-18T15:07:37.834Z,30.80
2019-05-18T15:10:08.755Z,31.60
2019-05-18T15:12:38.066Z,31.80
2019-05-18T15:15:08.825Z,30.50
2019-05-18T15:17:38.166Z,30.30
2019-05-18T15:20:09.361Z,29.30
2019-05-18T15:22:38.682Z,28.00
2019-05-18T15:25:09.301Z,26.90
2019-05-18T15:27:39.224Z,26.20
2019-05-18T15:30:09.161Z,25.40
2019-05-18T15:32:38.479Z,25.30
2019-05-18T15:37:32.134Z,25.30
2019-05-18T15:40:01.448Z,25.40
2019-05-18T15:42:31.017Z,25.50
2019-05-18T15:45:00.386Z,25.50
2019-05-18T15:47:29.739Z,25.50
2019-05-18T15:49:59.070Z,25.10
2019-05-18T15:52:29.385Z,25.20
2019-05-18T15:54:58.690Z,25.20
2019-05-18T15:57:28.041Z,25.00
2019-05-18T15:59:57.421Z,24.80
2019-05-18T16:02:26.877Z,24.60
2019-05-18T16:04:58.799Z,24.70
2019-05-18T16:07:28.133Z,24.40
2019-05-18T16:09:57.460Z,24.50
2019-05-18T16:12:26.773Z,24.40
2019-05-18T16:14:56.077Z,24.30
2019-05-18T16:17:38.416Z,24.20
2019-05-18T16:19:56.393Z,23.90
2019-05-18T16:22:26.625Z,23.70
2019-05-18T16:24:55.935Z,23.50
2019-05-18T16:27:25.259Z,23.00
2019-05-18T16:29:54.821Z,22.80
2019-05-18T16:32:24.133Z,22.60
2019-05-18T16:34:54.253Z,22.60
2019-05-18T16:37:23.558Z,22.70
2019-05-18T16:39:52.862Z,22.60
2019-05-18T16:42:22.181Z,22.50
2019-05-18T16:44:51.485Z,22.40
2019-05-18T16:47:20.807Z,22.20
2019-05-18T16:49:50.105Z,22.10
2019-05-18T16:52:19.410Z,22.00
2019-05-18T16:54:48.718Z,21.90
2019-05-18T16:57:18.022Z,21.80
2019-05-18T16:59:48.825Z,21.90
2019-05-18T17:02:30.663Z,22.00
2019-05-18T17:04:49.241Z,22.00
2019-05-18T17:07:18.562Z,22.00
2019-05-18T17:09:47.873Z,22.00
2019-05-18T17:12:17.193Z,22.00
2019-05-18T17:14:46.489Z,21.80
2019-05-18T17:17:15.793Z,21.60
2019-05-18T17:19:45.699Z,21.50
2019-05-18T17:22:15.006Z,21.50
2019-05-18T17:24:44.309Z,21.40
2019-05-18T17:27:13.770Z,21.30
2019-05-18T17:29:43.081Z,21.30
2019-05-18T17:32:12.443Z,21.30
2019-05-18T17:34:41.906Z,21.20
2019-05-18T17:37:12.355Z,21.20
2019-05-18T17:39:41.710Z,21.00
2019-05-18T17:42:11.025Z,21.00
2019-05-18T17:44:40.325Z,20.90
2019-05-18T17:47:09.654Z,20.80
2019-05-18T17:49:38.958Z,20.70
2019-05-18T17:52:08.266Z,20.60
2019-05-18T17:54:37.598Z,20.40
2019-05-18T17:57:08.958Z,20.40
2019-05-18T17:59:39.251Z,20.30
2019-05-18T18:02:08.570Z,20.20
2019-05-18T18:04:37.882Z,20.10
2019-05-18T18:07:07.190Z,20.00
2019-05-18T18:09:36.493Z,20.00
2019-05-18T18:12:05.843Z,19.90
2019-05-18T18:14:35.206Z,19.80
2019-05-18T18:17:04.673Z,19.70
2019-05-18T18:19:34.034Z,19.70
2019-05-18T18:22:03.710Z,19.60
2019-05-18T18:24:33.074Z,19.60
2019-05-18T18:27:02.377Z,19.50
2019-05-18T18:29:32.853Z,19.40
2019-05-18T18:32:02.173Z,19.30
2019-05-18T18:34:31.538Z,19.20
2019-05-18T18:37:01.781Z,19.10
2019-05-18T18:39:32.069Z,19.00
2019-05-18T18:42:13.280Z,18.90
2019-05-18T18:44:42.589Z,18.80
2019-05-18T18:47:11.940Z,18.70
2019-05-18T18:49:41.327Z,18.60
2019-05-18T18:52:10.621Z,18.50
2019-05-18T18:54:40.003Z,18.50
2019-05-18T18:57:09.309Z,18.40
2019-05-18T18:59:39.551Z,18.30
2019-05-18T19:02:08.853Z,18.20
2019-05-18T19:04:39.242Z,18.10
2019-05-18T19:07:09.225Z,18.10
2019-05-18T19:09:38.746Z,18.10
2019-05-18T19:12:08.522Z,18.00
2019-05-18T19:14:37.847Z,17.90
2019-05-18T19:17:07.223Z,17.80
2019-05-18T19:19:39.854Z,17.70
2019-05-18T19:22:07.546Z,17.80
2019-05-18T19:24:36.877Z,17.60
2019-05-18T19:27:06.247Z,17.50
2019-05-18T19:29:35.703Z,17.40
2019-05-18T19:32:05.005Z,17.30
2019-05-18T19:34:34.346Z,17.20
2019-05-18T19:37:03.726Z,17.20
2019-05-18T19:39:33.822Z,17.20
2019-05-18T19:42:03.139Z,17.20
2019-05-18T19:44:32.447Z,17.10
2019-05-18T19:47:01.749Z,17.10
2019-05-18T19:49:31.278Z,17.10
2019-05-18T19:52:00.581Z,17.00
2019-05-18T19:54:29.923Z,16.90
2019-05-18T19:56:59.286Z,16.90
2019-05-18T19:59:29.083Z,16.80
2019-05-18T20:01:58.449Z,16.70
2019-05-18T20:04:27.770Z,16.60
2019-05-18T20:06:57.079Z,16.50
2019-05-18T20:09:26.388Z,16.30
2019-05-18T20:11:55.721Z,16.20
2019-05-18T20:14:25.031Z,16.10
2019-05-18T20:16:54.395Z,16.00
2019-05-18T20:19:38.210Z,15.90
2019-05-18T20:21:54.841Z,15.80
2019-05-18T20:24:25.093Z,15.80
2019-05-18T20:26:54.407Z,15.70
2019-05-18T20:29:23.717Z,15.60
2019-05-18T20:31:53.134Z,15.50
2019-05-18T20:34:22.439Z,15.30
2019-05-18T20:36:51.749Z,15.20
2019-05-18T20:39:21.077Z,15.20
2019-05-18T20:41:50.393Z,15.10
2019-05-18T20:44:19.716Z,15.10
2019-05-18T20:46:49.019Z,15.00
2019-05-18T20:49:18.337Z,14.90
2019-05-18T20:51:47.671Z,14.90
2019-05-18T20:54:16.971Z,14.90
2019-05-18T20:56:46.277Z,14.80
2019-05-18T20:59:15.595Z,14.60
2019-05-18T21:01:44.906Z,14.40
2019-05-18T21:04:15.198Z,14.20
2019-05-18T21:06:45.683Z,14.00
2019-05-18T21:09:15.374Z,13.80
2019-05-18T21:11:44.697Z,13.60
2019-05-18T21:14:14.084Z,13.50
2019-05-18T21:16:43.412Z,13.40
2019-05-18T21:19:12.727Z,13.30
2019-05-18T21:21:42.041Z,13.30
2019-05-18T21:24:11.417Z,13.30
2019-05-18T21:26:40.731Z,13.20
2019-05-18T21:29:10.061Z,13.20
2019-05-18T21:31:39.368Z,13.10
2019-05-18T21:34:08.681Z,13.00
2019-05-18T21:36:38.045Z,13.00
2019-05-18T21:39:07.349Z,13.00
2019-05-18T21:41:36.659Z,13.00
2019-05-18T21:44:06.615Z,13.00
2019-05-18T21:46:38.943Z,13.00
2019-05-18T21:49:06.961Z,12.90
2019-05-18T21:51:36.285Z,12.90
2019-05-18T21:54:05.610Z,12.90
2019-05-18T21:56:34.926Z,12.90
2019-05-18T21:59:11.937Z,12.90
2019-05-18T22:01:35.310Z,12.90
2019-05-18T22:04:04.616Z,12.90
2019-05-18T22:06:35.398Z,13.00
2019-05-18T22:09:06.243Z,12.90
2019-05-18T22:11:35.751Z,12.90
2019-05-18T22:14:05.655Z,12.90
2019-05-18T22:16:34.963Z,12.90
2019-05-18T22:19:04.273Z,12.90
2019-05-18T22:21:33.586Z,12.90
2019-05-18T22:24:02.987Z,12.80
2019-05-18T22:26:33.441Z,12.80
2019-05-18T22:29:02.762Z,12.70
2019-05-18T22:31:33.022Z,12.70
2019-05-18T22:34:02.459Z,12.70
2019-05-18T22:36:31.817Z,12.70
2019-05-18T22:39:01.150Z,12.60
2019-05-18T22:41:33.382Z,12.60
2019-05-18T22:44:03.096Z,12.50
2019-05-18T22:46:33.354Z,12.40
2019-05-18T22:49:02.738Z,12.30
2019-05-18T22:51:32.122Z,12.20
2019-05-18T22:54:01.461Z,12.10
2019-05-18T22:56:30.779Z,12.00
2019-05-18T22:59:00.074Z,12.00
2019-05-18T23:01:29.397Z,11.90
2019-05-18T23:03:58.714Z,11.90
2019-05-18T23:06:28.084Z,11.90
2019-05-18T23:08:57.466Z,11.90
2019-05-18T23:11:27.046Z,11.90
2019-05-18T23:13:56.373Z,11.90
2019-05-18T23:16:25.681Z,11.90
2019-05-18T23:18:57.165Z,11.80
2019-05-18T23:21:26.600Z,11.80
2019-05-18T23:23:56.973Z,11.80
2019-05-18T23:26:26.293Z,11.70
2019-05-18T23:28:55.642Z,11.60
2019-05-18T23:31:24.956Z,11.50
2019-05-18T23:33:54.266Z,11.50
2019-05-18T23:36:23.596Z,11.50
2019-05-18T23:38:52.922Z,11.50
2019-05-18T23:41:22.229Z,11.50
2019-05-18T23:43:52.958Z,11.50
2019-05-18T23:46:22.275Z,11.50
2019-05-18T23:48:52.912Z,11.50
2019-05-18T23:51:22.234Z,11.40
2019-05-18T23:53:53.787Z,11.40
2019-05-18T23:56:25.541Z,11.30
2019-05-18T23:58:54.849Z,11.30
